sensor_id;sensor_type;location;lat;lon;timestamp;temperature;humidity
65072;DHT22;51663;52.310;17.016;2022-11-15T00:01:17;28.90;26.30
65072;DHT22;51663;52.310;17.016;2022-11-15T00:04:19;28.90;26.20
65072;DHT22;51663;52.310;17.016;2022-11-15T00:07:22;28.90;26.40
65072;DHT22;51663;52.310;17.016;2022-11-15T00:10:54;28.80;26.40
65072;DHT22;51663;52.310;17.016;2022-11-15T00:13:57;28.90;26.30
65072;DHT22;51663;52.310;17.016;2022-11-15T00:17:00;28.90;26.40
65072;DHT22;51663;52.310;17.016;2022-11-15T00:20:02;29.00;26.30
65072;DHT22;51663;52.310;17.016;2022-11-15T00:23:05;29.10;26.20
65072;DHT22;51663;52.310;17.016;2022-11-15T00:26:10;29.20;26.10
65072;DHT22;51663;52.310;17.016;2022-11-15T00:29:15;29.20;26.10
65072;DHT22;51663;52.310;17.016;2022-11-15T00:32:17;29.20;26.10
65072;DHT22;51663;52.310;17.016;2022-11-15T00:35:19;29.20;26.00
65072;DHT22;51663;52.310;17.016;2022-11-15T00:38:22;29.30;26.10
65072;DHT22;51663;52.310;17.016;2022-11-15T00:41:24;29.30;26.00
65072;DHT22;51663;52.310;17.016;2022-11-15T00:44:26;29.30;26.00
65072;DHT22;51663;52.310;17.016;2022-11-15T00:47:28;29.30;26.00
65072;DHT22;51663;52.310;17.016;2022-11-15T00:50:30;29.30;25.90
65072;DHT22;51663;52.310;17.016;2022-11-15T00:53:32;29.30;26.00
65072;DHT22;51663;52.310;17.016;2022-11-15T00:56:35;29.30;25.90
65072;DHT22;51663;52.310;17.016;2022-11-15T00:59:37;29.30;26.00
65072;DHT22;51663;52.310;17.016;2022-11-15T01:02:39;29.30;26.00
65072;DHT22;51663;52.310;17.016;2022-11-15T01:05:41;29.10;26.00
65072;DHT22;51663;52.310;17.016;2022-11-15T01:08:43;29.30;26.00
65072;DHT22;51663;52.310;17.016;2022-11-15T01:11:45;29.30;25.90
65072;DHT22;51663;52.310;17.016;2022-11-15T01:14:47;29.30;25.80
65072;DHT22;51663;52.310;17.016;2022-11-15T01:17:49;29.40;25.70
65072;DHT22;51663;52.310;17.016;2022-11-15T01:20:51;29.30;25.80
65072;DHT22;51663;52.310;17.016;2022-11-15T01:23:54;29.30;25.90
65072;DHT22;51663;52.310;17.016;2022-11-15T01:26:57;29.20;25.80
65072;DHT22;51663;52.310;17.016;2022-11-15T01:29:59;29.20;25.80
65072;DHT22;51663;52.310;17.016;2022-11-15T01:33:01;29.20;26.50
65072;DHT22;51663;52.310;17.016;2022-11-15T01:36:04;29.00;26.00
65072;DHT22;51663;52.310;17.016;2022-11-15T01:39:07;29.10;26.00
65072;DHT22;51663;52.310;17.016;2022-11-15T01:42:13;28.90;26.00
65072;DHT22;51663;52.310;17.016;2022-11-15T01:45:16;28.90;26.10
65072;DHT22;51663;52.310;17.016;2022-11-15T01:48:18;28.90;26.00
65072;DHT22;51663;52.310;17.016;2022-11-15T01:51:22;28.90;25.90
65072;DHT22;51663;52.310;17.016;2022-11-15T01:54:26;28.80;26.00
65072;DHT22;51663;52.310;17.016;2022-11-15T01:57:28;28.90;26.00
65072;DHT22;51663;52.310;17.016;2022-11-15T02:00:31;28.80;26.00
65072;DHT22;51663;52.310;17.016;2022-11-15T02:03:44;28.90;26.00
65072;DHT22;51663;52.310;17.016;2022-11-15T02:06:48;29.00;26.00
65072;DHT22;51663;52.310;17.016;2022-11-15T02:09:52;29.10;25.90
65072;DHT22;51663;52.310;17.016;2022-11-15T02:12:56;29.10;25.70
65072;DHT22;51663;52.310;17.016;2022-11-15T02:19:37;29.10;25.70
65072;DHT22;51663;52.310;17.016;2022-11-15T02:23:14;29.00;25.70
65072;DHT22;51663;52.310;17.016;2022-11-15T02:33:32;29.00;25.60
65072;DHT22;51663;52.310;17.016;2022-11-15T02:36:47;28.90;25.60
65072;DHT22;51663;52.310;17.016;2022-11-15T02:39:59;28.90;25.50
65072;DHT22;51663;52.310;17.016;2022-11-15T02:43:10;28.90;25.60
65072;DHT22;51663;52.310;17.016;2022-11-15T02:46:45;28.80;25.60
65072;DHT22;51663;52.310;17.016;2022-11-15T02:50:10;28.80;25.70
65072;DHT22;51663;52.310;17.016;2022-11-15T02:53:14;28.70;25.60
65072;DHT22;51663;52.310;17.016;2022-11-15T02:56:17;28.80;25.50
65072;DHT22;51663;52.310;17.016;2022-11-15T03:06:26;28.70;25.70
65072;DHT22;51663;52.310;17.016;2022-11-15T03:12:46;28.60;25.80
65072;DHT22;51663;52.310;17.016;2022-11-15T03:22:24;28.40;25.60
65072;DHT22;51663;52.310;17.016;2022-11-15T03:25:29;28.50;25.70
65072;DHT22;51663;52.310;17.016;2022-11-15T03:28:41;28.40;25.80
65072;DHT22;51663;52.310;17.016;2022-11-15T03:31:50;28.30;25.90
65072;DHT22;51663;52.310;17.016;2022-11-15T03:35:01;28.10;26.00
65072;DHT22;51663;52.310;17.016;2022-11-15T03:38:26;28.10;25.90
65072;DHT22;51663;52.310;17.016;2022-11-15T03:44:59;28.10;25.80
65072;DHT22;51663;52.310;17.016;2022-11-15T03:48:14;28.00;25.80
65072;DHT22;51663;52.310;17.016;2022-11-15T03:51:18;27.90;26.20
65072;DHT22;51663;52.310;17.016;2022-11-15T03:54:20;28.10;26.20
65072;DHT22;51663;52.310;17.016;2022-11-15T03:57:22;28.00;26.20
65072;DHT22;51663;52.310;17.016;2022-11-15T04:00:25;28.10;26.10
65072;DHT22;51663;52.310;17.016;2022-11-15T04:03:27;27.90;26.20
65072;DHT22;51663;52.310;17.016;2022-11-15T04:06:29;28.00;26.30
65072;DHT22;51663;52.310;17.016;2022-11-15T04:09:31;28.30;26.10
65072;DHT22;51663;52.310;17.016;2022-11-15T04:12:36;28.30;26.20
65072;DHT22;51663;52.310;17.016;2022-11-15T04:15:38;28.30;26.10
65072;DHT22;51663;52.310;17.016;2022-11-15T04:18:41;28.20;26.10
65072;DHT22;51663;52.310;17.016;2022-11-15T04:21:45;28.20;26.20
65072;DHT22;51663;52.310;17.016;2022-11-15T04:25:05;28.20;26.20
65072;DHT22;51663;52.310;17.016;2022-11-15T04:28:07;28.10;26.50
65072;DHT22;51663;52.310;17.016;2022-11-15T04:31:10;28.10;26.20
65072;DHT22;51663;52.310;17.016;2022-11-15T04:34:12;28.20;26.30
65072;DHT22;51663;52.310;17.016;2022-11-15T04:37:15;28.40;26.10
65072;DHT22;51663;52.310;17.016;2022-11-15T04:40:17;28.30;26.10
65072;DHT22;51663;52.310;17.016;2022-11-15T04:43:20;28.30;26.10
65072;DHT22;51663;52.310;17.016;2022-11-15T04:46:23;28.40;26.20
65072;DHT22;51663;52.310;17.016;2022-11-15T04:49:25;28.50;26.20
65072;DHT22;51663;52.310;17.016;2022-11-15T04:52:27;28.40;26.00
65072;DHT22;51663;52.310;17.016;2022-11-15T04:55:29;28.50;26.10
65072;DHT22;51663;52.310;17.016;2022-11-15T04:58:31;28.50;26.10
65072;DHT22;51663;52.310;17.016;2022-11-15T05:01:36;28.50;26.00
65072;DHT22;51663;52.310;17.016;2022-11-15T05:04:45;28.50;26.00
65072;DHT22;51663;52.310;17.016;2022-11-15T05:07:47;28.40;26.00
65072;DHT22;51663;52.310;17.016;2022-11-15T05:10:49;28.60;26.10
65072;DHT22;51663;52.310;17.016;2022-11-15T05:13:54;28.50;26.00
65072;DHT22;51663;52.310;17.016;2022-11-15T05:16:56;28.50;26.00
65072;DHT22;51663;52.310;17.016;2022-11-15T05:19:58;28.20;26.20
65072;DHT22;51663;52.310;17.016;2022-11-15T05:23:00;28.30;26.00
65072;DHT22;51663;52.310;17.016;2022-11-15T05:26:04;28.40;26.00
65072;DHT22;51663;52.310;17.016;2022-11-15T05:29:10;28.60;26.00
65072;DHT22;51663;52.310;17.016;2022-11-15T05:32:13;28.60;25.90
65072;DHT22;51663;52.310;17.016;2022-11-15T05:35:30;28.70;25.90
65072;DHT22;51663;52.310;17.016;2022-11-15T05:38:33;28.70;25.90
65072;DHT22;51663;52.310;17.016;2022-11-15T05:41:42;28.70;25.70
65072;DHT22;51663;52.310;17.016;2022-11-15T05:44:48;28.70;25.90
65072;DHT22;51663;52.310;17.016;2022-11-15T05:47:51;28.60;25.90
65072;DHT22;51663;52.310;17.016;2022-11-15T05:50:54;28.60;25.90
65072;DHT22;51663;52.310;17.016;2022-11-15T05:53:58;28.50;26.00
65072;DHT22;51663;52.310;17.016;2022-11-15T05:57:00;28.30;26.00
65072;DHT22;51663;52.310;17.016;2022-11-15T06:00:04;28.40;26.20
65072;DHT22;51663;52.310;17.016;2022-11-15T06:03:09;28.40;26.00
65072;DHT22;51663;52.310;17.016;2022-11-15T06:06:11;28.50;26.10
65072;DHT22;51663;52.310;17.016;2022-11-15T06:09:17;28.60;26.10
65072;DHT22;51663;52.310;17.016;2022-11-15T06:12:19;28.50;26.00
65072;DHT22;51663;52.310;17.016;2022-11-15T06:15:22;28.60;26.00
65072;DHT22;51663;52.310;17.016;2022-11-15T06:18:23;28.70;25.90
65072;DHT22;51663;52.310;17.016;2022-11-15T06:21:26;28.60;26.00
65072;DHT22;51663;52.310;17.016;2022-11-15T06:24:29;28.60;25.90
65072;DHT22;51663;52.310;17.016;2022-11-15T06:27:31;28.60;25.90
65072;DHT22;51663;52.310;17.016;2022-11-15T06:30:34;28.50;25.90
65072;DHT22;51663;52.310;17.016;2022-11-15T06:33:36;28.50;26.10
65072;DHT22;51663;52.310;17.016;2022-11-15T06:36:38;28.50;26.00
65072;DHT22;51663;52.310;17.016;2022-11-15T06:39:45;28.60;25.90
65072;DHT22;51663;52.310;17.016;2022-11-15T06:42:47;28.70;25.80
65072;DHT22;51663;52.310;17.016;2022-11-15T06:45:49;28.70;25.90
65072;DHT22;51663;52.310;17.016;2022-11-15T06:48:54;28.80;26.10
65072;DHT22;51663;52.310;17.016;2022-11-15T06:51:57;28.50;25.90
65072;DHT22;51663;52.310;17.016;2022-11-15T06:54:59;28.80;25.80
65072;DHT22;51663;52.310;17.016;2022-11-15T06:58:01;28.70;25.90
65072;DHT22;51663;52.310;17.016;2022-11-15T07:01:06;28.80;26.00
65072;DHT22;51663;52.310;17.016;2022-11-15T07:04:09;28.70;25.80
65072;DHT22;51663;52.310;17.016;2022-11-15T07:07:11;28.50;25.90
65072;DHT22;51663;52.310;17.016;2022-11-15T07:10:14;28.40;25.90
65072;DHT22;51663;52.310;17.016;2022-11-15T07:13:17;28.70;26.10
65072;DHT22;51663;52.310;17.016;2022-11-15T07:16:20;28.70;25.90
65072;DHT22;51663;52.310;17.016;2022-11-15T07:19:22;28.60;26.00
65072;DHT22;51663;52.310;17.016;2022-11-15T07:22:24;28.60;26.00
65072;DHT22;51663;52.310;17.016;2022-11-15T07:25:26;28.70;26.00
65072;DHT22;51663;52.310;17.016;2022-11-15T07:28:28;28.70;25.90
65072;DHT22;51663;52.310;17.016;2022-11-15T07:31:30;28.70;25.90
65072;DHT22;51663;52.310;17.016;2022-11-15T07:34:33;28.90;26.00
65072;DHT22;51663;52.310;17.016;2022-11-15T07:37:36;29.00;26.40
65072;DHT22;51663;52.310;17.016;2022-11-15T07:40:38;28.90;25.70
65072;DHT22;51663;52.310;17.016;2022-11-15T07:43:40;28.90;25.80
65072;DHT22;51663;52.310;17.016;2022-11-15T07:46:42;28.90;25.70
65072;DHT22;51663;52.310;17.016;2022-11-15T07:49:44;28.90;25.90
65072;DHT22;51663;52.310;17.016;2022-11-15T07:52:50;29.00;26.00
65072;DHT22;51663;52.310;17.016;2022-11-15T07:55:54;29.10;26.00
65072;DHT22;51663;52.310;17.016;2022-11-15T07:58:56;29.30;25.90
65072;DHT22;51663;52.310;17.016;2022-11-15T08:02:01;29.20;25.60
65072;DHT22;51663;52.310;17.016;2022-11-15T08:05:04;29.30;25.80
65072;DHT22;51663;52.310;17.016;2022-11-15T08:08:07;29.40;25.80
65072;DHT22;51663;52.310;17.016;2022-11-15T08:11:10;29.30;25.70
65072;DHT22;51663;52.310;17.016;2022-11-15T08:14:11;29.30;25.70
65072;DHT22;51663;52.310;17.016;2022-11-15T08:17:14;29.10;25.80
65072;DHT22;51663;52.310;17.016;2022-11-15T08:20:16;29.10;25.80
65072;DHT22;51663;52.310;17.016;2022-11-15T08:23:19;29.10;25.80
65072;DHT22;51663;52.310;17.016;2022-11-15T08:26:21;28.90;25.80
65072;DHT22;51663;52.310;17.016;2022-11-15T08:29:23;29.30;25.90
65072;DHT22;51663;52.310;17.016;2022-11-15T08:32:25;29.30;25.90
65072;DHT22;51663;52.310;17.016;2022-11-15T08:35:28;29.10;25.80
65072;DHT22;51663;52.310;17.016;2022-11-15T08:38:30;29.30;25.90
65072;DHT22;51663;52.310;17.016;2022-11-15T08:41:36;29.50;25.90
65072;DHT22;51663;52.310;17.016;2022-11-15T08:44:39;29.30;25.90
65072;DHT22;51663;52.310;17.016;2022-11-15T08:47:41;29.40;25.80
65072;DHT22;51663;52.310;17.016;2022-11-15T08:50:44;29.40;25.90
65072;DHT22;51663;52.310;17.016;2022-11-15T08:53:46;29.50;25.80
65072;DHT22;51663;52.310;17.016;2022-11-15T08:56:48;29.60;25.70
65072;DHT22;51663;52.310;17.016;2022-11-15T08:59:50;29.50;25.70
65072;DHT22;51663;52.310;17.016;2022-11-15T09:02:52;29.60;25.70
65072;DHT22;51663;52.310;17.016;2022-11-15T09:05:56;29.70;25.70
65072;DHT22;51663;52.310;17.016;2022-11-15T09:09:00;29.80;25.70
65072;DHT22;51663;52.310;17.016;2022-11-15T09:12:04;29.80;25.90
65072;DHT22;51663;52.310;17.016;2022-11-15T09:15:07;29.80;26.40
65072;DHT22;51663;52.310;17.016;2022-11-15T09:18:10;29.90;25.80
65072;DHT22;51663;52.310;17.016;2022-11-15T09:21:12;30.00;25.90
65072;DHT22;51663;52.310;17.016;2022-11-15T09:24:14;30.20;25.90
65072;DHT22;51663;52.310;17.016;2022-11-15T09:27:16;30.10;25.90
65072;DHT22;51663;52.310;17.016;2022-11-15T09:30:19;30.10;25.60
65072;DHT22;51663;52.310;17.016;2022-11-15T09:33:21;30.10;25.70
65072;DHT22;51663;52.310;17.016;2022-11-15T09:36:23;30.10;25.50
65072;DHT22;51663;52.310;17.016;2022-11-15T09:39:25;30.20;25.80
65072;DHT22;51663;52.310;17.016;2022-11-15T09:43:05;30.20;25.50
65072;DHT22;51663;52.310;17.016;2022-11-15T09:46:18;30.30;25.80
65072;DHT22;51663;52.310;17.016;2022-11-15T09:49:23;30.40;25.50
65072;DHT22;51663;52.310;17.016;2022-11-15T09:52:25;30.40;25.40
65072;DHT22;51663;52.310;17.016;2022-11-15T09:55:46;30.50;25.40
65072;DHT22;51663;52.310;17.016;2022-11-15T09:58:58;30.40;25.70
65072;DHT22;51663;52.310;17.016;2022-11-15T10:02:12;30.20;25.60
65072;DHT22;51663;52.310;17.016;2022-11-15T10:05:23;30.00;25.90
65072;DHT22;51663;52.310;17.016;2022-11-15T10:12:00;30.10;26.00
65072;DHT22;51663;52.310;17.016;2022-11-15T10:15:08;30.60;25.70
65072;DHT22;51663;52.310;17.016;2022-11-15T10:18:22;30.50;25.60
65072;DHT22;51663;52.310;17.016;2022-11-15T10:24:48;30.30;25.80
65072;DHT22;51663;52.310;17.016;2022-11-15T10:28:27;30.50;25.70
65072;DHT22;51663;52.310;17.016;2022-11-15T10:31:29;30.50;25.70
65072;DHT22;51663;52.310;17.016;2022-11-15T10:34:35;30.40;25.80
65072;DHT22;51663;52.310;17.016;2022-11-15T10:37:39;30.60;25.80
65072;DHT22;51663;52.310;17.016;2022-11-15T10:40:42;30.90;25.50
65072;DHT22;51663;52.310;17.016;2022-11-15T10:47:30;31.10;25.50
65072;DHT22;51663;52.310;17.016;2022-11-15T10:50:44;31.10;25.50
65072;DHT22;51663;52.310;17.016;2022-11-15T10:53:51;30.80;25.60
65072;DHT22;51663;52.310;17.016;2022-11-15T10:56:56;30.70;25.70
65072;DHT22;51663;52.310;17.016;2022-11-15T11:04:05;30.80;25.50
65072;DHT22;51663;52.310;17.016;2022-11-15T11:07:21;30.70;25.80
65072;DHT22;51663;52.310;17.016;2022-11-15T11:10:23;30.80;25.80
65072;DHT22;51663;52.310;17.016;2022-11-15T11:13:46;30.60;25.90
65072;DHT22;51663;52.310;17.016;2022-11-15T11:16:55;30.30;25.90
65072;DHT22;51663;52.310;17.016;2022-11-15T11:33:20;30.70;26.10
65072;DHT22;51663;52.310;17.016;2022-11-15T11:36:39;30.60;25.90
65072;DHT22;51663;52.310;17.016;2022-11-15T11:49:53;30.40;26.40
65072;DHT22;51663;52.310;17.016;2022-11-15T11:53:15;30.40;26.50
65072;DHT22;51663;52.310;17.016;2022-11-15T11:56:44;30.40;27.00
65072;DHT22;51663;52.310;17.016;2022-11-15T12:03:40;30.40;26.70
65072;DHT22;51663;52.310;17.016;2022-11-15T12:10:22;30.70;26.50
65072;DHT22;51663;52.310;17.016;2022-11-15T12:13:29;30.60;26.50
65072;DHT22;51663;52.310;17.016;2022-11-15T12:16:35;30.70;26.40
65072;DHT22;51663;52.310;17.016;2022-11-15T12:19:38;30.70;26.40
65072;DHT22;51663;52.310;17.016;2022-11-15T12:23:13;30.70;26.50
65072;DHT22;51663;52.310;17.016;2022-11-15T12:26:37;30.70;26.40
65072;DHT22;51663;52.310;17.016;2022-11-15T12:29:54;30.60;26.50
65072;DHT22;51663;52.310;17.016;2022-11-15T12:32:59;30.40;26.70
65072;DHT22;51663;52.310;17.016;2022-11-15T12:36:10;30.40;26.70
65072;DHT22;51663;52.310;17.016;2022-11-15T12:39:13;30.30;26.60
65072;DHT22;51663;52.310;17.016;2022-11-15T12:45:40;30.40;26.80
65072;DHT22;51663;52.310;17.016;2022-11-15T12:49:03;30.30;27.00
65072;DHT22;51663;52.310;17.016;2022-11-15T12:52:09;30.10;27.10
65072;DHT22;51663;52.310;17.016;2022-11-15T12:55:30;30.20;27.20
65072;DHT22;51663;52.310;17.016;2022-11-15T12:58:43;30.30;27.20
65072;DHT22;51663;52.310;17.016;2022-11-15T13:04:53;30.40;27.00
65072;DHT22;51663;52.310;17.016;2022-11-15T13:07:56;30.40;26.90
65072;DHT22;51663;52.310;17.016;2022-11-15T13:17:54;30.60;26.90
65072;DHT22;51663;52.310;17.016;2022-11-15T13:20:57;30.60;27.00
65072;DHT22;51663;52.310;17.016;2022-11-15T13:24:03;30.60;26.90
65072;DHT22;51663;52.310;17.016;2022-11-15T13:27:18;30.40;27.00
65072;DHT22;51663;52.310;17.016;2022-11-15T13:30:24;30.10;27.30
65072;DHT22;51663;52.310;17.016;2022-11-15T13:33:34;30.30;27.20
65072;DHT22;51663;52.310;17.016;2022-11-15T13:36:37;30.10;27.10
65072;DHT22;51663;52.310;17.016;2022-11-15T13:39:39;30.10;27.10
65072;DHT22;51663;52.310;17.016;2022-11-15T13:42:41;30.00;27.20
65072;DHT22;51663;52.310;17.016;2022-11-15T13:46:11;30.00;27.30
65072;DHT22;51663;52.310;17.016;2022-11-15T13:49:14;30.00;27.50
65072;DHT22;51663;52.310;17.016;2022-11-15T13:52:16;30.20;27.20
65072;DHT22;51663;52.310;17.016;2022-11-15T13:55:21;30.30;27.20
65072;DHT22;51663;52.310;17.016;2022-11-15T13:58:24;30.00;27.30
65072;DHT22;51663;52.310;17.016;2022-11-15T14:01:29;29.70;27.40
65072;DHT22;51663;52.310;17.016;2022-11-15T14:04:44;29.30;27.90
65072;DHT22;51663;52.310;17.016;2022-11-15T14:08:02;29.60;28.10
65072;DHT22;51663;52.310;17.016;2022-11-15T14:11:23;29.50;27.80
65072;DHT22;51663;52.310;17.016;2022-11-15T14:14:27;29.90;27.80
65072;DHT22;51663;52.310;17.016;2022-11-15T14:20:36;29.10;27.90
65072;DHT22;51663;52.310;17.016;2022-11-15T14:23:40;28.60;28.50
65072;DHT22;51663;52.310;17.016;2022-11-15T14:26:43;29.20;28.10
65072;DHT22;51663;52.310;17.016;2022-11-15T14:29:45;29.40;28.20
65072;DHT22;51663;52.310;17.016;2022-11-15T14:32:49;29.50;28.00
65072;DHT22;51663;52.310;17.016;2022-11-15T14:35:52;29.70;28.10
65072;DHT22;51663;52.310;17.016;2022-11-15T14:38:54;29.90;27.80
65072;DHT22;51663;52.310;17.016;2022-11-15T14:41:56;29.80;27.90
65072;DHT22;51663;52.310;17.016;2022-11-15T14:44:59;29.60;27.90
65072;DHT22;51663;52.310;17.016;2022-11-15T14:48:02;29.50;27.90
65072;DHT22;51663;52.310;17.016;2022-11-15T14:51:13;29.30;28.00
65072;DHT22;51663;52.310;17.016;2022-11-15T14:54:16;29.20;27.90
65072;DHT22;51663;52.310;17.016;2022-11-15T14:57:18;29.20;28.10
65072;DHT22;51663;52.310;17.016;2022-11-15T15:00:21;29.50;27.90
65072;DHT22;51663;52.310;17.016;2022-11-15T15:03:23;29.40;28.00
65072;DHT22;51663;52.310;17.016;2022-11-15T15:06:26;29.70;27.90
65072;DHT22;51663;52.310;17.016;2022-11-15T15:09:28;29.80;27.80
65072;DHT22;51663;52.310;17.016;2022-11-15T15:12:30;29.60;27.80
65072;DHT22;51663;52.310;17.016;2022-11-15T15:15:35;29.80;27.70
65072;DHT22;51663;52.310;17.016;2022-11-15T15:18:38;29.70;27.70
65072;DHT22;51663;52.310;17.016;2022-11-15T15:21:40;29.90;27.70
65072;DHT22;51663;52.310;17.016;2022-11-15T15:24:46;29.60;27.50
65072;DHT22;51663;52.310;17.016;2022-11-15T15:27:49;29.70;27.60
65072;DHT22;51663;52.310;17.016;2022-11-15T15:30:51;29.50;27.80
65072;DHT22;51663;52.310;17.016;2022-11-15T15:33:58;29.70;27.80
65072;DHT22;51663;52.310;17.016;2022-11-15T15:40:29;28.80;28.40
65072;DHT22;51663;52.310;17.016;2022-11-15T15:43:31;29.00;28.20
65072;DHT22;51663;52.310;17.016;2022-11-15T15:46:34;28.80;28.30
65072;DHT22;51663;52.310;17.016;2022-11-15T15:49:36;28.90;28.30
65072;DHT22;51663;52.310;17.016;2022-11-15T15:52:38;28.90;28.30
65072;DHT22;51663;52.310;17.016;2022-11-15T15:55:40;28.80;28.20
65072;DHT22;51663;52.310;17.016;2022-11-15T15:58:43;28.30;29.00
65072;DHT22;51663;52.310;17.016;2022-11-15T16:01:45;28.70;28.60
65072;DHT22;51663;52.310;17.016;2022-11-15T16:04:47;28.80;28.40
65072;DHT22;51663;52.310;17.016;2022-11-15T16:07:49;28.80;28.50
65072;DHT22;51663;52.310;17.016;2022-11-15T16:10:51;28.10;28.90
65072;DHT22;51663;52.310;17.016;2022-11-15T16:13:53;28.60;28.80
65072;DHT22;51663;52.310;17.016;2022-11-15T16:16:55;28.90;28.40
65072;DHT22;51663;52.310;17.016;2022-11-15T16:19:57;28.90;28.50
65072;DHT22;51663;52.310;17.016;2022-11-15T16:23:01;28.80;28.60
65072;DHT22;51663;52.310;17.016;2022-11-15T16:26:20;28.30;28.60
65072;DHT22;51663;52.310;17.016;2022-11-15T16:29:23;28.50;29.20
65072;DHT22;51663;52.310;17.016;2022-11-15T16:32:26;28.70;28.70
65072;DHT22;51663;52.310;17.016;2022-11-15T16:35:42;28.90;29.00
65072;DHT22;51663;52.310;17.016;2022-11-15T16:38:45;28.50;28.60
65072;DHT22;51663;52.310;17.016;2022-11-15T16:41:48;28.80;28.60
65072;DHT22;51663;52.310;17.016;2022-11-15T16:44:51;28.90;28.40
65072;DHT22;51663;52.310;17.016;2022-11-15T16:47:53;29.00;28.30
65072;DHT22;51663;52.310;17.016;2022-11-15T16:50:57;28.70;28.40
65072;DHT22;51663;52.310;17.016;2022-11-15T16:53:59;28.60;28.50
65072;DHT22;51663;52.310;17.016;2022-11-15T16:57:02;29.10;28.30
65072;DHT22;51663;52.310;17.016;2022-11-15T17:00:04;29.20;27.90
65072;DHT22;51663;52.310;17.016;2022-11-15T17:03:07;29.30;28.00
65072;DHT22;51663;52.310;17.016;2022-11-15T17:06:10;29.30;28.10
65072;DHT22;51663;52.310;17.016;2022-11-15T17:09:17;29.30;27.90
65072;DHT22;51663;52.310;17.016;2022-11-15T17:12:20;29.10;28.00
65072;DHT22;51663;52.310;17.016;2022-11-15T17:15:23;28.60;28.20
65072;DHT22;51663;52.310;17.016;2022-11-15T17:18:25;28.70;28.40
65072;DHT22;51663;52.310;17.016;2022-11-15T17:21:28;28.40;28.60
65072;DHT22;51663;52.310;17.016;2022-11-15T17:24:34;28.40;28.80
65072;DHT22;51663;52.310;17.016;2022-11-15T17:27:37;28.90;28.30
65072;DHT22;51663;52.310;17.016;2022-11-15T17:30:40;29.10;28.10
65072;DHT22;51663;52.310;17.016;2022-11-15T17:33:43;29.30;28.00
65072;DHT22;51663;52.310;17.016;2022-11-15T17:36:46;29.30;27.90
65072;DHT22;51663;52.310;17.016;2022-11-15T17:39:48;29.00;28.50
65072;DHT22;51663;52.310;17.016;2022-11-15T17:42:51;28.70;28.20
65072;DHT22;51663;52.310;17.016;2022-11-15T17:45:54;28.80;28.40
65072;DHT22;51663;52.310;17.016;2022-11-15T17:48:56;28.40;28.30
65072;DHT22;51663;52.310;17.016;2022-11-15T17:51:58;28.70;28.30
65072;DHT22;51663;52.310;17.016;2022-11-15T17:55:01;28.80;28.10
65072;DHT22;51663;52.310;17.016;2022-11-15T17:58:03;28.80;28.40
65072;DHT22;51663;52.310;17.016;2022-11-15T18:04:13;28.50;28.60
65072;DHT22;51663;52.310;17.016;2022-11-15T18:07:16;28.40;29.20
65072;DHT22;51663;52.310;17.016;2022-11-15T18:10:18;28.30;28.80
65072;DHT22;51663;52.310;17.016;2022-11-15T18:13:21;27.80;29.80
65072;DHT22;51663;52.310;17.016;2022-11-15T18:16:26;27.20;30.00
65072;DHT22;51663;52.310;17.016;2022-11-15T18:19:29;27.60;29.80
65072;DHT22;51663;52.310;17.016;2022-11-15T18:22:31;27.80;29.50
65072;DHT22;51663;52.310;17.016;2022-11-15T18:25:33;27.90;29.50
65072;DHT22;51663;52.310;17.016;2022-11-15T18:28:37;27.90;29.30
65072;DHT22;51663;52.310;17.016;2022-11-15T18:31:41;28.70;28.80
65072;DHT22;51663;52.310;17.016;2022-11-15T18:34:48;28.30;28.70
65072;DHT22;51663;52.310;17.016;2022-11-15T18:37:50;28.50;28.70
65072;DHT22;51663;52.310;17.016;2022-11-15T18:40:52;28.40;28.50
65072;DHT22;51663;52.310;17.016;2022-11-15T18:43:58;28.80;28.60
65072;DHT22;51663;52.310;17.016;2022-11-15T18:47:01;28.90;28.40
65072;DHT22;51663;52.310;17.016;2022-11-15T18:50:04;28.80;28.30
65072;DHT22;51663;52.310;17.016;2022-11-15T18:53:06;28.50;28.70
65072;DHT22;51663;52.310;17.016;2022-11-15T18:56:09;28.60;28.60
65072;DHT22;51663;52.310;17.016;2022-11-15T18:59:12;28.00;29.20
65072;DHT22;51663;52.310;17.016;2022-11-15T19:02:15;28.40;29.00
65072;DHT22;51663;52.310;17.016;2022-11-15T19:05:17;28.40;28.60
65072;DHT22;51663;52.310;17.016;2022-11-15T19:08:22;28.90;28.60
65072;DHT22;51663;52.310;17.016;2022-11-15T19:11:29;28.80;28.50
65072;DHT22;51663;52.310;17.016;2022-11-15T19:14:32;28.50;28.50
65072;DHT22;51663;52.310;17.016;2022-11-15T19:17:34;28.20;28.90
65072;DHT22;51663;52.310;17.016;2022-11-15T19:20:36;28.40;29.00
65072;DHT22;51663;52.310;17.016;2022-11-15T19:23:42;28.40;28.80
65072;DHT22;51663;52.310;17.016;2022-11-15T19:26:44;28.50;28.60
65072;DHT22;51663;52.310;17.016;2022-11-15T19:29:47;28.40;28.70
65072;DHT22;51663;52.310;17.016;2022-11-15T19:32:50;28.10;28.90
65072;DHT22;51663;52.310;17.016;2022-11-15T19:36:05;28.00;29.50
65072;DHT22;51663;52.310;17.016;2022-11-15T19:39:16;28.10;29.30
65072;DHT22;51663;52.310;17.016;2022-11-15T19:42:19;27.70;29.40
65072;DHT22;51663;52.310;17.016;2022-11-15T19:45:22;27.50;30.10
65072;DHT22;51663;52.310;17.016;2022-11-15T19:48:25;27.70;29.90
65072;DHT22;51663;52.310;17.016;2022-11-15T19:51:32;28.10;29.60
65072;DHT22;51663;52.310;17.016;2022-11-15T19:54:41;28.20;29.30
65072;DHT22;51663;52.310;17.016;2022-11-15T19:57:44;28.00;29.30
65072;DHT22;51663;52.310;17.016;2022-11-15T20:00:46;27.70;29.80
65072;DHT22;51663;52.310;17.016;2022-11-15T20:03:49;27.90;29.70
65072;DHT22;51663;52.310;17.016;2022-11-15T20:06:51;28.20;29.70
65072;DHT22;51663;52.310;17.016;2022-11-15T20:09:54;28.30;29.30
65072;DHT22;51663;52.310;17.016;2022-11-15T20:12:56;27.60;29.80
65072;DHT22;51663;52.310;17.016;2022-11-15T20:15:58;26.90;30.20
65072;DHT22;51663;52.310;17.016;2022-11-15T20:19:00;27.80;30.00
65072;DHT22;51663;52.310;17.016;2022-11-15T20:22:02;27.70;29.70
65072;DHT22;51663;52.310;17.016;2022-11-15T20:25:05;27.40;30.00
65072;DHT22;51663;52.310;17.016;2022-11-15T20:28:07;27.40;30.50
65072;DHT22;51663;52.310;17.016;2022-11-15T20:31:11;26.70;31.00
65072;DHT22;51663;52.310;17.016;2022-11-15T20:34:14;26.40;32.40
65072;DHT22;51663;52.310;17.016;2022-11-15T20:37:16;26.30;32.00
65072;DHT22;51663;52.310;17.016;2022-11-15T20:40:18;26.00;32.50
65072;DHT22;51663;52.310;17.016;2022-11-15T20:43:20;25.70;33.00
65072;DHT22;51663;52.310;17.016;2022-11-15T20:46:28;25.90;32.60
65072;DHT22;51663;52.310;17.016;2022-11-15T20:49:44;26.60;31.80